Terminal Aerodrome Forecast
Issued by NWS Mt. Holly, NJ

Home | Current Version | Previous Version | Text Only | Print | Product List | Glossary On
Versions: 1 2 3 4 5 6 7 8 9 10 11 12 13 14 15 16 17 18 19 20
502
FTUS41 KPHI 011740
TAFACY
TAF
KACY 011740Z 0118/0218 09010KT 4SM RA BR BKN007 OVC015
     FM012000 09008KT 6SM -SHRA BR BKN007 OVC015
     FM012200 06008KT P6SM BKN007 OVC015
     FM020400 04006KT 4SM -DZ BR OVC004
     FM021400 10008KT P6SM BKN007 OVC015=

USA.gov is the U.S. government's official web portal to all federal, state and local government web resources and services.